Time;durP1;ratioP1;P1;durP2;ratioP2;P2;SDS_P1;SDS_P2;PMS_P1;PMS_P2;Temp;Humidity;BMP_temperature;BMP_pressure;BME280_temperature;BME280_humidity;BME280_pressure;Samples;Min_cycle;Max_cycle;Signal;HPM_P1;HPM_P2
2023/08/15 00:02:22;;;;;;;8.25;3.58;;;;;;;19.95;100.00;101057.91;5034081;28;20057;-54
2023/08/15 00:04:50;;;;;;;11.55;3.70;;;;;;;19.95;100.00;101052.56;5034260;28;20045;-53
2023/08/15 00:07:19;;;;;;;10.45;3.80;;;;;;;19.88;100.00;101052.38;5032988;28;20059;-52
2023/08/15 00:09:48;;;;;;;8.50;3.35;;;;;;;19.82;100.00;101055.66;5034400;28;20076;-54
2023/08/15 00:12:16;;;;;;;8.93;3.80;;;;;;;19.80;100.00;101052.28;5034207;28;20049;-54
2023/08/15 00:14:44;;;;;;;6.95;3.15;;;;;;;19.74;100.00;101043.03;5034231;28;20042;-55
2023/08/15 00:17:13;;;;;;;6.40;3.95;;;;;;;19.66;100.00;101041.16;5034089;28;20390;-55
2023/08/15 00:19:41;;;;;;;9.55;3.83;;;;;;;19.63;100.00;101036.13;5033767;28;20503;-53
2023/08/15 00:22:09;;;;;;;7.68;3.90;;;;;;;19.63;100.00;101046.78;5034027;28;20049;-54
2023/08/15 00:24:41;;;;;;;8.35;4.15;;;;;;;19.62;100.00;101042.47;5033801;28;20049;-54
2023/08/15 00:27:09;;;;;;;8.30;4.15;;;;;;;19.64;100.00;101040.47;5033735;28;20088;-53
2023/08/15 00:29:37;;;;;;;9.82;4.28;;;;;;;19.56;100.00;101030.56;5033668;28;20476;-53
2023/08/15 00:32:05;;;;;;;9.55;4.40;;;;;;;19.63;100.00;101027.28;5033678;28;20140;-54
2023/08/15 00:34:36;;;;;;;10.70;4.90;;;;;;;19.62;100.00;101031.81;5033571;28;20077;-53
2023/08/15 00:37:04;;;;;;;10.98;4.50;;;;;;;19.55;100.00;101025.38;5033667;28;20049;-53
2023/08/15 00:39:32;;;;;;;8.73;4.38;;;;;;;19.51;100.00;101024.88;5033528;28;20045;-52
2023/08/15 00:42:02;;;;;;;12.73;4.60;;;;;;;19.49;100.00;101036.69;5033661;28;20129;-53
2023/08/15 00:44:30;;;;;;;9.38;4.57;;;;;;;19.48;100.00;101033.16;5033447;28;20469;-53
2023/08/15 00:46:58;;;;;;;8.88;4.63;;;;;;;19.45;100.00;101030.00;5033501;28;20451;-53
2023/08/15 00:49:26;;;;;;;11.27;5.35;;;;;;;19.40;100.00;101030.44;5033562;28;20049;-52
2023/08/15 00:51:54;;;;;;;10.05;5.15;;;;;;;19.40;100.00;101033.09;5033473;28;20045;-52
2023/08/15 00:54:23;;;;;;;13.43;5.60;;;;;;;19.36;100.00;101032.59;5033337;28;20057;-53
2023/08/15 00:56:51;;;;;;;11.95;5.53;;;;;;;19.39;100.00;101040.28;5033108;28;20053;-53
2023/08/15 00:59:22;;;;;;;9.85;5.30;;;;;;;19.36;100.00;101037.06;5032513;28;20038;-54
2023/08/15 01:01:50;;;;;;;8.63;4.82;;;;;;;19.33;100.00;101019.53;5031761;28;20131;-52
2023/08/15 01:04:19;;;;;;;9.43;5.13;;;;;;;19.41;100.00;101027.63;5033161;28;20060;-53
2023/08/15 01:06:48;;;;;;;11.10;4.93;;;;;;;19.35;100.00;101020.22;5033215;28;20046;-52
2023/08/15 01:09:17;;;;;;;9.82;5.32;;;;;;;19.33;100.00;101024.88;5032970;28;20049;-52
2023/08/15 01:12:08;;;;;;;11.73;6.18;;;;;;;19.32;100.00;101019.69;5033437;28;20053;-53
2023/08/15 01:14:42;;;;;;;9.88;5.40;;;;;;;19.33;100.00;101030.19;5032980;28;20045;-54
2023/08/15 01:17:15;;;;;;;13.45;5.53;;;;;;;19.33;100.00;101021.38;5032989;28;20133;-51
2023/08/15 01:19:49;;;;;;;10.82;5.53;;;;;;;19.27;100.00;101020.16;5032924;28;20043;-55
2023/08/15 01:22:22;;;;;;;9.35;5.70;;;;;;;19.33;100.00;101016.88;5033235;28;20049;-52
2023/08/15 01:24:52;;;;;;;10.10;5.80;;;;;;;19.37;100.00;101004.06;5031717;28;20132;-53
2023/08/15 01:27:21;;;;;;;9.38;5.25;;;;;;;19.35;100.00;101006.06;5032922;28;20393;-53
2023/08/15 01:29:50;;;;;;;9.63;5.32;;;;;;;19.32;100.00;100998.34;5032736;28;20121;-54
2023/08/15 01:32:27;;;;;;;10.13;6.00;;;;;;;19.32;100.00;100993.03;5032138;28;20041;-53
2023/08/15 01:35:04;;;;;;;11.10;6.22;;;;;;;19.32;100.00;101001.88;5032134;28;20056;-52
2023/08/15 01:37:32;;;;;;;11.27;6.20;;;;;;;19.24;100.00;100996.47;5032087;28;20077;-52
2023/08/15 01:40:04;;;;;;;10.93;6.03;;;;;;;19.33;100.00;101000.03;5032432;28;20476;-52
2023/08/15 01:42:33;;;;;;;10.63;5.68;;;;;;;19.29;100.00;100999.50;5031183;28;20115;-52
2023/08/15 01:45:02;;;;;;;11.02;5.22;;;;;;;19.29;100.00;100990.69;5031039;28;20037;-53
2023/08/15 01:47:32;;;;;;;11.35;5.47;;;;;;;19.25;100.00;100993.66;5032293;28;20381;-54
2023/08/15 01:50:00;;;;;;;12.50;5.72;;;;;;;19.23;100.00;101002.81;5032301;28;20120;-53
2023/08/15 01:52:28;;;;;;;10.88;6.35;;;;;;;19.19;100.00;101002.25;5032261;28;20527;-52
2023/08/15 01:54:56;;;;;;;11.23;6.88;;;;;;;19.30;100.00;101005.69;5028353;28;20052;-51
2023/08/15 01:57:26;;;;;;;12.43;6.82;;;;;;;19.34;100.00;101005.22;5028907;28;20073;-53
2023/08/15 01:59:54;;;;;;;10.48;6.60;;;;;;;19.26;100.00;101002.47;5032098;28;20652;-52
2023/08/15 02:02:22;;;;;;;12.60;7.07;;;;;;;19.18;100.00;101018.41;5031995;28;20436;-53
2023/08/15 02:04:50;;;;;;;10.23;6.95;;;;;;;19.18;100.00;101026.41;5031757;28;20045;-52
2023/08/15 02:07:18;;;;;;;11.93;6.30;;;;;;;19.19;100.00;101028.09;5031729;28;20405;-54
2023/08/15 02:09:49;;;;;;;10.98;6.28;;;;;;;19.15;100.00;101035.53;5031851;28;20064;-53
2023/08/15 02:12:17;;;;;;;10.82;6.78;;;;;;;19.18;100.00;101034.41;5031928;28;20049;-54
2023/08/15 02:14:47;;;;;;;11.05;6.20;;;;;;;19.20;100.00;101037.75;5030663;28;20095;-53
2023/08/15 02:17:15;;;;;;;11.93;6.45;;;;;;;19.19;100.00;101039.56;5031864;28;20053;-53
2023/08/15 02:19:43;;;;;;;11.50;7.07;;;;;;;19.20;100.00;101046.59;5031740;28;20405;-54
2023/08/15 02:22:11;;;;;;;13.45;7.65;;;;;;;19.24;100.00;101052.47;5030553;28;20467;-53
2023/08/15 02:24:39;;;;;;;15.25;8.65;;;;;;;19.25;100.00;101060.31;5032074;28;20123;-53
2023/08/15 02:27:08;;;;;;;10.73;7.78;;;;;;;19.28;100.00;101061.84;5031811;28;20053;-53
2023/08/15 02:29:38;;;;;;;13.15;8.40;;;;;;;19.31;100.00;101066.84;5031702;28;20404;-53
2023/08/15 02:32:11;;;;;;;14.38;9.02;;;;;;;19.29;100.00;101076.00;5031150;28;20408;-54
2023/08/15 02:34:39;;;;;;;15.07;8.45;;;;;;;19.26;100.00;101069.13;5031232;28;20045;-54
2023/08/15 02:37:07;;;;;;;14.13;8.55;;;;;;;19.29;100.00;101079.50;5031016;28;20137;-54
2023/08/15 02:39:35;;;;;;;12.30;6.82;;;;;;;19.28;100.00;101080.50;5031481;28;20401;-55
2023/08/15 02:42:03;;;;;;;17.17;7.60;;;;;;;19.30;100.00;101078.50;5031616;28;20073;-53
2023/08/15 02:44:34;;;;;;;12.95;7.53;;;;;;;19.29;100.00;101071.50;5031526;28;20095;-54
2023/08/15 02:47:02;;;;;;;15.48;7.60;;;;;;;19.28;100.00;101077.84;5031383;28;20045;-53
2023/08/15 02:49:31;;;;;;;14.68;6.95;;;;;;;19.28;100.00;101080.50;5031118;28;20049;-55
2023/08/15 02:52:00;;;;;;;14.43;7.65;;;;;;;19.29;100.00;101063.50;5031069;28;20412;-54
2023/08/15 02:54:28;;;;;;;14.80;8.10;;;;;;;19.23;100.00;101074.78;5031524;28;20045;-54
2023/08/15 02:56:56;;;;;;;12.93;6.93;;;;;;;19.23;100.00;101072.09;5031291;28;20141;-53
2023/08/15 02:59:27;;;;;;;12.75;6.97;;;;;;;19.20;100.00;101073.25;5031526;28;20046;-54
2023/08/15 03:01:55;;;;;;;14.20;7.40;;;;;;;19.20;100.00;101083.91;5031470;28;20056;-53
2023/08/15 03:04:23;;;;;;;11.88;6.82;;;;;;;19.22;100.00;101086.41;5031373;28;20050;-53
2023/08/15 03:06:52;;;;;;;11.30;6.50;;;;;;;19.17;100.00;101075.38;5031305;28;20052;-53
2023/08/15 03:09:21;;;;;;;10.85;6.05;;;;;;;19.13;100.00;101074.84;5031350;28;20041;-54
2023/08/15 03:11:49;;;;;;;13.40;6.25;;;;;;;19.14;100.00;101075.66;5031243;28;20057;-55
2023/08/15 03:14:17;;;;;;;15.20;6.05;;;;;;;19.14;100.00;101071.19;5031115;28;20529;-54
2023/08/15 03:16:47;;;;;;;13.50;6.35;;;;;;;19.11;100.00;101065.31;5030877;28;20060;-51
2023/08/15 03:19:15;;;;;;;13.45;6.25;;;;;;;19.13;100.00;101072.19;5030720;28;20069;-53
2023/08/15 03:21:43;;;;;;;12.25;6.32;;;;;;;19.05;100.00;101075.59;5031367;28;20087;-53
2023/08/15 03:24:13;;;;;;;10.73;6.05;;;;;;;19.03;100.00;101080.25;5034721;28;20037;-54
2023/08/15 03:26:42;;;;;;;12.95;6.28;;;;;;;19.03;100.00;101082.91;5035241;28;20067;-54
2023/08/15 03:29:10;;;;;;;10.82;5.90;;;;;;;18.98;100.00;101076.31;5035028;28;20518;-54
2023/08/15 03:31:38;;;;;;;13.85;6.00;;;;;;;18.98;100.00;101077.19;5033801;28;20060;-64
2023/08/15 03:34:06;;;;;;;13.18;5.90;;;;;;;18.89;100.00;101086.91;5035163;28;20133;-63
2023/08/15 03:36:34;;;;;;;10.98;5.35;;;;;;;18.83;100.00;101092.81;5035041;28;20132;-54
2023/08/15 03:39:02;;;;;;;12.98;5.78;;;;;;;18.91;100.00;101092.09;5035006;28;20435;-55
2023/08/15 03:41:32;;;;;;;11.30;5.97;;;;;;;18.88;100.00;101087.03;5034838;28;20053;-54
2023/08/15 03:44:00;;;;;;;12.65;6.22;;;;;;;18.83;100.00;101084.81;5034920;28;20057;-54
2023/08/15 03:46:28;;;;;;;11.85;5.90;;;;;;;18.77;100.00;101090.72;5034845;28;20045;-54
2023/08/15 03:48:56;;;;;;;11.23;6.32;;;;;;;18.73;100.00;101092.00;5034812;28;20419;-53
2023/08/15 03:51:24;;;;;;;11.10;5.70;;;;;;;18.72;100.00;101093.84;5034719;28;20049;-54
2023/08/15 03:54:12;;;;;;;15.55;6.50;;;;;;;18.74;100.00;101091.84;5034612;28;20041;-53
2023/08/15 03:56:42;;;;;;;10.65;5.55;;;;;;;18.73;100.00;101089.31;5033964;28;20516;-54
2023/08/15 03:59:10;;;;;;;10.63;5.03;;;;;;;18.64;100.00;101080.41;5034131;28;20055;-54
2023/08/15 04:01:39;;;;;;;15.60;5.47;;;;;;;18.64;100.00;101077.75;5034390;28;20052;-53
2023/08/15 04:04:08;;;;;;;13.73;5.88;;;;;;;18.64;100.00;101091.06;5034467;28;20083;-53
2023/08/15 04:06:36;;;;;;;10.98;5.60;;;;;;;18.59;100.00;101088.00;5034208;28;20042;-53
2023/08/15 04:09:05;;;;;;;14.23;6.15;;;;;;;18.52;100.00;101094.91;5034379;28;20073;-54
2023/08/15 04:11:36;;;;;;;12.55;6.15;;;;;;;18.51;100.00;101087.88;5034367;28;20116;-53
2023/08/15 04:14:06;;;;;;;13.45;5.43;;;;;;;18.45;100.00;101107.09;5034368;28;20083;-54
2023/08/15 04:16:35;;;;;;;12.70;6.20;;;;;;;18.39;100.00;101106.72;5034269;28;20460;-54
2023/08/15 04:19:04;;;;;;;13.43;6.30;;;;;;;18.29;100.00;101103.22;5034285;28;20107;-53
2023/08/15 04:21:32;;;;;;;14.38;6.30;;;;;;;18.32;100.00;101099.44;5034300;28;20049;-54
2023/08/15 04:24:02;;;;;;;11.23;5.68;;;;;;;18.33;100.00;101103.78;5034268;28;20504;-54
2023/08/15 04:26:31;;;;;;;11.57;5.95;;;;;;;18.22;100.00;101105.63;5034025;28;20073;-52
2023/08/15 04:28:59;;;;;;;15.15;6.20;;;;;;;18.15;100.00;101114.34;5032461;28;20049;-53
2023/08/15 04:31:29;;;;;;;13.77;6.18;;;;;;;18.07;100.00;101115.88;5033734;28;20037;-54
2023/08/15 04:33:57;;;;;;;12.52;5.68;;;;;;;18.05;100.00;101122.31;5032853;28;20508;-54
2023/08/15 04:36:25;;;;;;;15.23;5.22;;;;;;;18.01;100.00;101115.59;5033846;28;20046;-53
2023/08/15 04:38:54;;;;;;;14.10;6.00;;;;;;;17.97;100.00;101115.06;5034318;28;20477;-53
2023/08/15 04:41:22;;;;;;;10.52;4.63;;;;;;;17.97;100.00;101108.88;5033789;28;20573;-52
2023/08/15 04:43:50;;;;;;;14.77;5.25;;;;;;;17.91;100.00;101126.22;5033448;28;20049;-54
2023/08/15 04:46:21;;;;;;;12.63;4.80;;;;;;;17.84;100.00;101136.59;5033463;28;20128;-64
2023/08/15 04:48:51;;;;;;;13.55;5.40;;;;;;;17.83;100.00;101142.91;5033280;28;20053;-64
2023/08/15 04:51:19;;;;;;;11.52;5.13;;;;;;;17.78;100.00;101141.63;5033621;28;20042;-64
2023/08/15 04:53:47;;;;;;;11.48;4.80;;;;;;;17.81;100.00;101149.34;5029494;28;20575;-65
2023/08/15 04:56:15;;;;;;;16.00;5.32;;;;;;;17.76;100.00;101152.41;5030100;28;21143;-65
2023/08/15 04:58:43;;;;;;;16.67;4.97;;;;;;;17.74;100.00;101159.69;5030143;28;20059;-53
2023/08/15 05:01:11;;;;;;;10.68;4.55;;;;;;;17.72;100.00;101159.84;5032865;28;20084;-54
2023/08/15 05:03:40;;;;;;;9.43;3.95;;;;;;;17.71;100.00;101154.63;5032812;28;20069;-52
2023/08/15 05:06:09;;;;;;;12.95;4.82;;;;;;;17.69;100.00;101168.09;5033043;28;20057;-53
2023/08/15 05:08:37;;;;;;;11.55;4.78;;;;;;;17.65;100.00;101168.50;5033500;28;20128;-51
2023/08/15 05:11:05;;;;;;;13.98;4.03;;;;;;;17.69;100.00;101175.22;5033036;28;20041;-54
2023/08/15 05:13:34;;;;;;;13.93;4.80;;;;;;;17.63;100.00;101181.09;5033069;28;20037;-53
2023/08/15 05:16:02;;;;;;;13.18;4.68;;;;;;;17.62;100.00;101196.22;5033405;28;20455;-49
2023/08/15 05:18:30;;;;;;;11.57;4.53;;;;;;;17.57;100.00;101195.78;5032943;28;20057;-53
2023/08/15 05:20:58;;;;;;;13.05;4.75;;;;;;;17.61;100.00;101205.16;5033264;28;20049;-52
2023/08/15 05:23:28;;;;;;;12.65;4.53;;;;;;;17.58;100.00;101200.97;5032782;28;20037;-52
2023/08/15 05:25:56;;;;;;;11.60;4.65;;;;;;;17.57;100.00;101199.31;5033074;28;20452;-51
2023/08/15 05:28:24;;;;;;;12.30;5.32;;;;;;;17.47;100.00;101208.22;5032841;28;20060;-53
2023/08/15 05:30:52;;;;;;;11.55;4.90;;;;;;;17.44;100.00;101212.00;5032842;28;20042;-53
2023/08/15 05:33:20;;;;;;;13.65;5.00;;;;;;;17.40;100.00;101219.41;5032615;28;20041;-53
2023/08/15 05:35:49;;;;;;;9.55;4.75;;;;;;;17.43;100.00;101218.28;5032553;28;20055;-51
2023/08/15 05:38:19;;;;;;;11.90;5.55;;;;;;;17.40;100.00;101227.38;5031666;28;20046;-65
2023/08/15 05:40:49;;;;;;;13.90;5.07;;;;;;;17.37;100.00;101237.44;5027501;28;20056;-52
2023/08/15 05:43:17;;;;;;;14.07;5.32;;;;;;;17.46;100.00;101230.47;5030209;28;20088;-52
2023/08/15 05:45:48;;;;;;;11.70;5.43;;;;;;;17.43;100.00;101234.22;5032185;28;20389;-64
2023/08/15 05:48:16;;;;;;;11.30;5.00;;;;;;;17.45;100.00;101236.75;5028434;28;20405;-64
2023/08/15 05:50:45;;;;;;;13.55;4.93;;;;;;;17.52;100.00;101238.75;5029158;28;20041;-64
2023/08/15 05:53:13;;;;;;;13.95;5.53;;;;;;;17.58;100.00;101250.66;5032203;28;20132;-64
2023/08/15 05:55:42;;;;;;;13.68;6.00;;;;;;;17.61;100.00;101252.19;5032385;28;20044;-64
2023/08/15 05:58:12;;;;;;;12.75;5.65;;;;;;;17.71;100.00;101259.22;5032300;28;20062;-63
2023/08/15 06:00:41;;;;;;;16.73;5.95;;;;;;;17.73;100.00;101245.78;5032595;28;20408;-64
2023/08/15 06:03:09;;;;;;;14.07;5.38;;;;;;;17.84;100.00;101239.50;5032188;28;20523;-64
2023/08/15 06:05:37;;;;;;;13.75;5.65;;;;;;;17.89;100.00;101242.59;5028349;28;20115;-63
2023/08/15 06:08:06;;;;;;;16.02;5.40;;;;;;;17.97;100.00;101248.09;5029173;28;20119;-63
2023/08/15 06:10:37;;;;;;;15.80;5.75;;;;;;;18.05;100.00;101250.91;5028567;28;20081;-64
2023/08/15 06:13:05;;;;;;;16.17;5.85;;;;;;;18.11;100.00;101251.34;5032087;28;20044;-64
2023/08/15 06:15:35;;;;;;;12.57;5.38;;;;;;;18.24;100.00;101258.06;5029447;28;20038;-64
2023/08/15 06:18:04;;;;;;;13.68;5.38;;;;;;;18.32;100.00;101262.66;5028792;28;20057;-63
2023/08/15 06:20:36;;;;;;;13.98;4.75;;;;;;;18.42;100.00;101266.19;5027855;28;20049;-63
2023/08/15 06:23:07;;;;;;;11.27;4.45;;;;;;;18.55;100.00;101268.53;5028955;28;20366;-63
2023/08/15 06:25:35;;;;;;;12.93;5.13;;;;;;;18.61;100.00;101267.16;5029212;28;20124;-63
2023/08/15 06:28:06;;;;;;;12.13;5.28;;;;;;;18.67;100.00;101265.72;5031942;28;20123;-54
2023/08/15 06:30:35;;;;;;;13.50;4.70;;;;;;;18.70;100.00;101266.28;5031754;28;20049;-63
2023/08/15 06:33:04;;;;;;;12.15;4.50;;;;;;;18.75;100.00;101277.34;5031420;28;20052;-60
2023/08/15 06:35:34;;;;;;;12.90;4.30;;;;;;;18.83;100.00;101287.28;5031456;28;20053;-60
2023/08/15 06:38:03;;;;;;;12.65;4.93;;;;;;;18.88;100.00;101292.22;5031841;28;20520;-60
2023/08/15 06:40:32;;;;;;;12.75;4.45;;;;;;;19.00;100.00;101292.91;5031435;28;20045;-51
2023/08/15 06:43:00;;;;;;;13.52;4.00;;;;;;;19.07;100.00;101289.50;5026764;28;20080;-54
2023/08/15 06:45:28;;;;;;;11.73;4.85;;;;;;;19.14;100.00;101296.91;5028390;28;20520;-60
2023/08/15 06:47:58;;;;;;;13.65;4.97;;;;;;;19.27;100.00;101300.09;5030103;28;20558;-60
2023/08/15 06:50:26;;;;;;;10.95;4.45;;;;;;;19.33;100.00;101307.50;5027629;28;20049;-54
2023/08/15 06:52:54;;;;;;;10.82;4.53;;;;;;;19.41;100.00;101302.31;5028038;28;20096;-51
2023/08/15 06:55:23;;;;;;;12.50;4.40;;;;;;;19.51;100.00;101301.41;5026400;28;20776;-54
2023/08/15 06:57:52;;;;;;;9.40;4.57;;;;;;;19.64;100.00;101307.25;5027098;28;20061;-55
2023/08/15 07:00:20;;;;;;;12.98;3.97;;;;;;;19.73;100.00;101309.03;5028420;28;20413;-53
2023/08/15 07:02:48;;;;;;;10.40;3.95;;;;;;;19.80;100.00;101308.44;5029865;28;20053;-60
2023/08/15 07:05:18;;;;;;;13.90;5.20;;;;;;;19.92;100.00;101304.59;5031335;28;20076;-60
2023/08/15 07:07:46;;;;;;;15.52;4.10;;;;;;;20.00;100.00;101312.69;5031266;28;20056;-60
2023/08/15 07:10:14;;;;;;;11.27;4.18;;;;;;;20.01;100.00;101306.34;5030875;28;20087;-55
2023/08/15 07:12:42;;;;;;;9.80;3.97;;;;;;;20.15;100.00;101305.00;5027356;28;20124;-54
2023/08/15 07:15:13;;;;;;;13.05;4.93;;;;;;;20.27;100.00;101303.78;5028602;28;20054;-60
2023/08/15 07:17:41;;;;;;;10.90;4.40;;;;;;;20.37;100.00;101308.19;5030876;28;20608;-60
2023/08/15 07:20:14;;;;;;;14.05;4.00;;;;;;;20.47;100.00;101308.13;5029717;28;20053;-59
2023/08/15 07:22:43;;;;;;;11.45;3.90;;;;;;;20.58;100.00;101308.72;5027665;28;20045;-60
2023/08/15 07:25:15;;;;;;;13.98;4.60;;;;;;;20.78;100.00;101316.59;5026222;28;20050;-60
2023/08/15 07:27:43;;;;;;;14.18;4.25;;;;;;;20.90;100.00;101306.47;5030870;28;20041;-59
2023/08/15 07:30:12;;;;;;;10.85;4.18;;;;;;;20.99;100.00;101310.06;5031276;28;20106;-59
2023/08/15 07:32:41;;;;;;;13.05;4.30;;;;;;;21.18;100.00;101311.69;5028670;28;20444;-59
2023/08/15 07:35:09;;;;;;;12.88;4.45;;;;;;;21.30;100.00;101307.72;5027643;28;20404;-53
2023/08/15 07:37:38;;;;;;;14.32;4.22;;;;;;;21.41;100.00;101314.63;5031341;28;20558;-54
2023/08/15 07:40:10;;;;;;;12.15;4.13;;;;;;;21.52;100.00;101313.53;5030917;28;20049;-61
2023/08/15 07:42:38;;;;;;;11.40;3.78;;;;;;;21.65;100.00;101327.31;5031176;28;20045;-59
2023/08/15 07:45:08;;;;;;;10.25;3.55;;;;;;;21.80;100.00;101318.66;5030963;28;20053;-59
2023/08/15 07:47:38;;;;;;;11.57;4.28;;;;;;;21.92;100.00;101325.38;5031029;28;20103;-59
2023/08/15 07:50:14;;;;;;;11.63;3.97;;;;;;;22.06;100.00;101326.59;5030054;28;20091;-59
2023/08/15 07:52:43;;;;;;;10.50;3.78;;;;;;;22.20;100.00;101330.50;5026943;28;20557;-59
2023/08/15 07:55:14;;;;;;;12.38;3.92;;;;;;;22.22;100.00;101329.31;5025850;28;20524;-59
2023/08/15 07:57:43;;;;;;;8.40;3.42;;;;;;;22.40;100.00;101336.38;5029456;28;20049;-59
2023/08/15 08:00:12;;;;;;;11.00;4.22;;;;;;;22.56;100.00;101338.25;5031069;28;20049;-59
2023/08/15 08:02:45;;;;;;;15.55;4.78;;;;;;;22.50;100.00;101344.28;5031023;28;20041;-54
2023/08/15 08:05:16;;;;;;;12.35;4.38;;;;;;;22.71;100.00;101343.78;5030967;28;20061;-54
2023/08/15 08:07:45;;;;;;;12.52;3.72;;;;;;;22.92;100.00;101337.91;5028150;28;20096;-54
2023/08/15 08:10:14;;;;;;;11.65;3.42;;;;;;;22.92;100.00;101343.28;5028733;28;20053;-54
2023/08/15 08:12:42;;;;;;;10.00;3.53;;;;;;;22.80;100.00;101350.81;5030791;28;20045;-55
2023/08/15 08:15:11;;;;;;;10.35;3.25;;;;;;;22.89;100.00;101351.63;5030851;28;20037;-55
2023/08/15 08:17:39;;;;;;;11.93;3.53;;;;;;;23.00;100.00;101362.03;5031905;28;20128;-55
2023/08/15 08:20:11;;;;;;;9.88;3.50;;;;;;;23.04;100.00;101367.88;5034358;28;20042;-60
2023/08/15 08:22:40;;;;;;;12.77;3.60;;;;;;;23.12;100.00;101373.22;5034381;28;20852;-59
2023/08/15 08:25:16;;;;;;;11.50;4.10;;;;;;;23.12;100.00;101367.88;5033957;28;20042;-60
2023/08/15 08:27:45;;;;;;;12.23;3.88;;;;;;;23.29;100.00;101376.78;5034034;28;20041;-59
2023/08/15 08:30:14;;;;;;;9.93;3.22;;;;;;;23.37;100.00;101379.44;5034053;28;20041;-59
2023/08/15 08:32:42;;;;;;;11.52;3.85;;;;;;;23.39;100.00;101377.41;5034258;28;20061;-59
2023/08/15 08:35:11;;;;;;;11.75;3.50;;;;;;;23.41;100.00;101374.53;5034002;28;20037;-59
2023/08/15 08:37:39;;;;;;;12.13;3.40;;;;;;;23.40;100.00;101379.09;5030709;28;20050;-59
2023/08/15 08:40:08;;;;;;;10.23;3.72;;;;;;;23.53;100.00;101377.69;5029133;28;20547;-59
2023/08/15 08:42:38;;;;;;;12.02;3.47;;;;;;;23.47;100.00;101379.22;5032489;28;20111;-59
2023/08/15 08:45:09;;;;;;;11.25;3.47;;;;;;;23.50;100.00;101383.41;5033665;28;20037;-59
2023/08/15 08:47:38;;;;;;;11.27;3.70;;;;;;;23.47;100.00;101373.88;5033539;28;20103;-60
2023/08/15 08:50:09;;;;;;;8.77;3.25;;;;;;;23.61;100.00;101375.00;5033527;28;20041;-59
2023/08/15 08:52:41;;;;;;;9.27;2.90;;;;;;;23.66;100.00;101363.75;5030655;28;20041;-59
2023/08/15 08:55:10;;;;;;;10.32;2.85;;;;;;;23.79;100.00;101364.88;5028693;28;20056;-59
2023/08/15 08:57:42;;;;;;;7.85;2.72;;;;;;;23.88;100.00;101367.50;5033212;28;20053;-59
2023/08/15 09:00:13;;;;;;;9.57;2.70;;;;;;;23.88;100.00;101372.88;5031206;28;20049;-59
2023/08/15 09:02:42;;;;;;;7.82;2.95;;;;;;;23.99;100.00;101379.75;5029552;28;20100;-59
2023/08/15 09:05:11;;;;;;;11.68;3.00;;;;;;;24.03;100.00;101373.81;5033342;28;20132;-59
2023/08/15 09:07:42;;;;;;;7.78;2.50;;;;;;;24.18;100.00;101379.28;5033372;28;20053;-59
2023/08/15 09:10:11;;;;;;;10.20;3.10;;;;;;;24.18;100.00;101378.47;5033288;28;20045;-59
2023/08/15 09:12:42;;;;;;;7.80;2.70;;;;;;;24.31;100.00;101381.41;5033151;28;20080;-59
2023/08/15 09:15:11;;;;;;;9.35;2.90;;;;;;;24.31;100.00;101378.72;5029987;28;20144;-59
2023/08/15 09:17:40;;;;;;;7.93;2.70;;;;;;;24.26;100.00;101392.66;5029453;28;20483;-59
2023/08/15 09:20:11;;;;;;;9.93;3.00;;;;;;;24.14;100.00;101384.16;5029033;28;20033;-60
2023/08/15 09:22:44;;;;;;;9.43;3.00;;;;;;;24.06;100.00;101388.75;5031200;28;20120;-53
2023/08/15 09:25:12;;;;;;;;;;;;;;;24.13;100.00;101395.94;5033110;28;20053;-50
2023/08/15 09:27:44;;;;;;;8.20;2.67;;;;;;;24.24;100.00;101396.53;5032300;28;19921;-53
2023/08/15 09:30:14;;;;;;;10.10;2.50;;;;;;;24.39;100.00;101400.16;5029899;28;20049;-53
2023/08/15 09:32:44;;;;;;;9.25;2.53;;;;;;;24.52;100.00;101401.44;5030551;28;20053;-54
2023/08/15 09:35:14;;;;;;;7.88;2.53;;;;;;;24.37;100.00;101404.88;5031114;28;20049;-54
2023/08/15 09:37:46;;;;;;;;;;;;;;;24.55;100.00;101403.75;5030275;28;20045;-53
2023/08/15 09:40:17;;;;;;;13.50;2.45;;;;;;;24.55;100.00;101411.81;5032547;28;20023;-53
2023/08/15 09:42:46;;;;;;;9.52;3.10;;;;;;;24.48;100.00;101409.81;5032593;28;20049;-59
2023/08/15 09:45:15;;;;;;;9.32;2.78;;;;;;;24.55;100.00;101411.81;5032753;28;20045;-59
2023/08/15 09:47:45;;;;;;;12.80;2.60;;;;;;;24.39;100.00;101418.97;5032631;28;20100;-59
2023/08/15 09:50:15;;;;;;;10.88;2.58;;;;;;;24.63;100.00;101420.69;5032756;28;20539;-59
2023/08/15 09:52:44;;;;;;;9.18;2.63;;;;;;;24.75;100.00;101417.59;5032710;28;20049;-59
2023/08/15 09:55:17;;;;;;;7.65;2.15;;;;;;;24.78;100.00;101423.44;5031296;28;20045;-59
2023/08/15 09:57:48;;;;;;;8.90;2.50;;;;;;;25.12;100.00;101427.50;5029267;28;20499;-59
2023/08/15 10:00:17;;;;;;;9.55;2.70;;;;;;;25.23;100.00;101431.63;5030973;28;20037;-59
2023/08/15 10:02:48;;;;;;;9.32;2.38;;;;;;;25.58;100.00;101433.84;5032419;28;20384;-59
2023/08/15 10:05:21;;;;;;;10.73;3.00;;;;;;;25.67;100.00;101430.00;5032354;28;20104;-59
2023/08/15 10:07:50;;;;;;;;;;;;;;;25.77;100.00;101433.28;5032746;28;20680;-53
2023/08/15 10:10:18;;;;;;;10.57;2.70;;;;;;;25.64;100.00;101435.78;5032326;28;19971;-51
2023/08/15 10:12:51;;;;;;;9.65;2.90;;;;;;;25.42;100.00;101446.44;5032502;28;20511;-53
2023/08/15 10:15:21;;;;;;;9.60;2.95;;;;;;;25.48;100.00;101443.03;5030805;28;20409;-55
2023/08/15 10:17:50;;;;;;;8.13;2.70;;;;;;;25.47;100.00;101441.34;5027945;28;20115;-55
2023/08/15 10:20:20;;;;;;;10.02;3.30;;;;;;;25.31;100.00;101444.16;5028487;28;20408;-53
2023/08/15 10:22:51;;;;;;;10.05;3.20;;;;;;;25.30;100.00;101450.56;5028589;28;20510;-53
2023/08/15 10:25:35;;;;;;;14.02;3.30;;;;;;;25.36;100.00;101444.50;5041570;28;20065;-52
2023/08/15 10:28:09;;;;;;;7.53;2.80;;;;;;;25.45;100.00;101459.53;5027942;28;20151;-52
2023/08/15 10:30:42;;;;;;;9.70;3.03;;;;;;;25.56;100.00;101454.72;5028814;28;20441;-54
2023/08/15 10:33:21;;;;;;;10.63;3.38;;;;;;;25.56;100.00;101468.19;5030581;28;20134;-54
2023/08/15 10:36:06;;;;;;;8.50;3.25;;;;;;;25.55;100.00;101466.50;5031243;28;20046;-54
2023/08/15 10:38:39;;;;;;;9.27;3.25;;;;;;;25.62;100.00;101470.97;5027236;28;20459;-54
2023/08/15 10:41:12;;;;;;;12.00;3.50;;;;;;;25.76;100.00;101477.38;5028133;28;20056;-52
2023/08/15 10:43:48;;;;;;;12.60;3.55;;;;;;;25.83;100.00;101469.41;5027874;28;20052;-53
2023/08/15 10:46:18;;;;;;;12.80;3.60;;;;;;;25.89;100.00;101465.13;5030166;28;20057;-54
2023/08/15 10:48:49;;;;;;;12.40;4.10;;;;;;;25.62;100.00;101473.66;5031411;28;20072;-54
2023/08/15 10:51:22;;;;;;;10.52;3.40;;;;;;;25.84;100.00;101472.91;5031347;28;20056;-52
2023/08/15 10:53:53;;;;;;;;;;;;;;;26.09;100.00;101473.50;5031990;28;20064;-54
2023/08/15 10:56:23;;;;;;;12.68;3.33;;;;;;;26.13;100.00;101472.94;5031466;28;19928;-52
2023/08/15 10:58:53;;;;;;;9.75;3.38;;;;;;;26.10;100.00;101476.00;5031288;28;20388;-55
2023/08/15 11:01:22;;;;;;;9.48;3.03;;;;;;;26.30;100.00;101476.25;5031435;28;20046;-54
2023/08/15 11:03:52;;;;;;;11.93;3.30;;;;;;;26.08;100.00;101475.38;5030689;28;20491;-54
2023/08/15 11:06:24;;;;;;;9.57;3.00;;;;;;;26.15;100.00;101476.28;5028311;28;20057;-54
2023/08/15 11:08:53;;;;;;;9.32;2.60;;;;;;;26.26;100.00;101471.41;5026455;28;20531;-53
2023/08/15 11:11:21;;;;;;;10.68;2.97;;;;;;;26.39;100.00;101471.59;5028112;28;20107;-59
2023/08/15 11:13:55;;;;;;;9.93;3.00;;;;;;;26.43;100.00;101459.41;5028032;28;20049;-59
2023/08/15 11:16:24;;;;;;;9.25;3.35;;;;;;;26.53;100.00;101463.66;5031400;28;20057;-58
2023/08/15 11:18:57;;;;;;;8.68;2.65;;;;;;;26.48;100.00;101462.34;5031492;28;20095;-59
2023/08/15 11:21:29;;;;;;;10.35;3.28;;;;;;;26.57;100.00;101462.25;5031473;28;20594;-59
2023/08/15 11:24:01;;;;;;;9.35;3.00;;;;;;;26.96;100.00;101469.09;5031327;28;20311;-59